createdAt,value
2022-08-10T00:01:27.075Z,16.21
2022-08-10T00:04:24.715Z,15.93
2022-08-10T00:07:21.575Z,16.21
2022-08-10T00:10:22.267Z,16.30
2022-08-10T00:13:19.139Z,16.15
2022-08-10T00:16:16.019Z,16.25
2022-08-10T00:19:13.027Z,16.09
2022-08-10T00:22:17.109Z,16.04
2022-08-10T00:25:14.105Z,16.16
2022-08-10T00:28:11.135Z,16.18
2022-08-10T00:31:07.977Z,16.09
2022-08-10T00:34:04.852Z,16.05
2022-08-10T00:37:02.336Z,15.79
2022-08-10T00:39:59.353Z,15.78
2022-08-10T00:42:56.249Z,15.81
2022-08-10T00:45:59.191Z,15.61
2022-08-10T00:49:00.331Z,15.66
2022-08-10T00:51:57.721Z,15.69
2022-08-10T00:54:55.599Z,15.68
2022-08-10T00:57:55.288Z,15.51
2022-08-10T01:00:52.524Z,15.51
2022-08-10T01:04:36.554Z,15.42
2022-08-10T01:07:30.542Z,15.37
2022-08-10T01:10:49.423Z,15.31
2022-08-10T01:14:06.930Z,15.33
2022-08-10T01:17:13.122Z,15.31
2022-08-10T01:20:30.908Z,15.40
2022-08-10T01:23:54.593Z,15.23
2022-08-10T01:27:18.938Z,15.11
2022-08-10T01:30:20.896Z,15.15
2022-08-10T01:33:58.744Z,15.20
2022-08-10T01:36:59.838Z,15.10
2022-08-10T01:40:02.286Z,14.97
2022-08-10T01:43:08.562Z,14.96
2022-08-10T01:46:07.518Z,15.08
2022-08-10T01:49:11.550Z,14.78
2022-08-10T01:52:08.653Z,14.92
2022-08-10T01:55:16.915Z,14.79
2022-08-10T01:58:17.504Z,14.78
2022-08-10T02:01:19.852Z,14.79
2022-08-10T02:04:19.472Z,14.70
2022-08-10T02:07:21.483Z,14.70
2022-08-10T02:10:20.401Z,14.69
2022-08-10T02:13:19.047Z,14.56
2022-08-10T02:16:20.213Z,14.44
2022-08-10T02:19:22.266Z,14.48
2022-08-10T02:22:37.815Z,14.47
2022-08-10T02:25:42.525Z,14.23
2022-08-10T02:28:41.468Z,14.34
2022-08-10T02:31:39.357Z,14.34
2022-08-10T02:34:39.268Z,14.15
2022-08-10T02:37:41.666Z,14.18
2022-08-10T02:45:15.579Z,13.91
2022-08-10T02:45:15.945Z,14.13
2022-08-10T02:48:00.030Z,14.21
2022-08-10T02:51:06.675Z,14.17
2022-08-10T02:54:10.996Z,14.12
2022-08-10T02:57:27.384Z,14.06
2022-08-10T03:00:26.043Z,13.94
2022-08-10T03:03:31.700Z,13.97
2022-08-10T03:06:39.780Z,13.98
2022-08-10T03:09:40.201Z,14.06
2022-08-10T03:12:39.176Z,14.11
2022-08-10T03:15:39.349Z,14.00
2022-08-10T03:18:38.281Z,14.08
2022-08-10T03:21:36.927Z,14.07
2022-08-10T03:24:35.131Z,14.01
2022-08-10T03:27:32.255Z,14.05
2022-08-10T03:30:33.482Z,13.90
2022-08-10T03:33:36.838Z,13.85
2022-08-10T03:36:43.774Z,13.77
2022-08-10T03:39:41.848Z,13.86
2022-08-10T03:42:40.670Z,13.86
2022-08-10T03:45:54.185Z,14.00
2022-08-10T03:48:56.676Z,13.76
2022-08-10T03:51:55.286Z,13.76
2022-08-10T03:54:53.533Z,13.78
2022-08-10T03:57:50.924Z,13.91
2022-08-10T04:00:51.068Z,13.85
2022-08-10T04:03:47.993Z,13.90
2022-08-10T04:07:06.237Z,13.79
2022-08-10T04:10:03.309Z,13.88
2022-08-10T04:13:00.146Z,13.94
2022-08-10T04:15:58.882Z,13.79
2022-08-10T04:18:57.315Z,13.86
2022-08-10T04:22:20.956Z,13.59
2022-08-10T04:25:19.644Z,13.71
2022-08-10T04:28:16.739Z,13.54
2022-08-10T04:31:16.930Z,13.45
2022-08-10T04:34:15.766Z,13.53
2022-08-10T04:37:15.907Z,13.86
2022-08-10T04:40:25.302Z,13.71
2022-08-10T04:43:27.591Z,13.74
2022-08-10T04:46:56.005Z,13.83
2022-08-10T04:49:55.680Z,13.80
2022-08-10T04:52:53.863Z,13.88
2022-08-10T04:55:50.695Z,13.85
2022-08-10T04:58:47.548Z,13.90
2022-08-10T05:02:28.836Z,14.00
2022-08-10T05:05:01.236Z,13.98
2022-08-10T05:07:58.067Z,13.92
2022-08-10T05:10:54.921Z,14.04
2022-08-10T05:13:52.402Z,14.16
2022-08-10T05:16:49.250Z,14.17
2022-08-10T05:20:05.119Z,14.28
2022-08-10T05:23:03.381Z,14.24
2022-08-10T05:26:00.418Z,14.40
2022-08-10T05:28:58.560Z,14.40
2022-08-10T05:31:55.702Z,14.52
2022-08-10T05:34:52.544Z,14.58
2022-08-10T05:38:08.964Z,14.68
2022-08-10T05:41:09.049Z,14.82
2022-08-10T05:44:06.203Z,14.76
2022-08-10T05:47:07.607Z,14.61
2022-08-10T05:50:07.277Z,14.93
2022-08-10T05:53:58.955Z,15.06
2022-08-10T05:56:21.377Z,14.97
2022-08-10T06:00:34.972Z,14.93
2022-08-10T06:02:41.996Z,15.26
2022-08-10T06:05:41.285Z,15.36
2022-08-10T06:08:41.079Z,15.14
2022-08-10T06:12:28.356Z,15.45
2022-08-10T06:15:05.697Z,15.84
2022-08-10T06:18:07.137Z,15.71
2022-08-10T06:21:06.582Z,15.94
2022-08-10T06:24:05.339Z,15.97
2022-08-10T06:27:02.248Z,16.05
2022-08-10T06:30:00.962Z,15.92
2022-08-10T06:33:02.339Z,16.19
2022-08-10T06:36:01.111Z,16.46
2022-08-10T06:39:11.362Z,16.71
2022-08-10T06:42:29.817Z,16.77
2022-08-10T06:45:37.072Z,16.92
2022-08-10T06:48:41.441Z,17.34
2022-08-10T06:51:41.178Z,17.88
2022-08-10T06:54:40.585Z,18.07
2022-08-10T06:57:38.732Z,18.24
2022-08-10T07:00:40.105Z,18.34
2022-08-10T07:03:50.235Z,18.52
2022-08-10T07:06:48.557Z,18.78
2022-08-10T07:09:47.547Z,18.72
2022-08-10T07:12:47.542Z,18.94
2022-08-10T07:15:57.042Z,19.19
2022-08-10T07:19:00.160Z,19.31
2022-08-10T07:21:58.162Z,19.41
2022-08-10T07:24:57.695Z,19.39
2022-08-10T07:28:01.258Z,19.42
2022-08-10T07:30:59.803Z,19.60
2022-08-10T07:33:59.678Z,19.69
2022-08-10T07:37:02.801Z,19.87
2022-08-10T07:40:04.638Z,19.75
2022-08-10T07:43:03.136Z,20.00
2022-08-10T07:46:01.833Z,20.10
2022-08-10T07:49:16.787Z,20.07
2022-08-10T07:52:16.551Z,20.27
2022-08-10T07:55:17.095Z,20.42
2022-08-10T07:58:17.626Z,20.53
2022-08-10T08:01:18.950Z,20.40
2022-08-10T08:04:19.175Z,20.62
2022-08-10T08:07:21.401Z,20.75
2022-08-10T08:10:19.244Z,20.80
2022-08-10T08:13:20.360Z,20.83
2022-08-10T08:16:22.036Z,21.45
2022-08-10T08:19:26.526Z,21.28
2022-08-10T08:24:14.598Z,21.35
2022-08-10T08:25:45.255Z,21.58
2022-08-10T08:28:45.626Z,21.76
2022-08-10T08:32:01.147Z,22.21
2022-08-10T08:35:04.072Z,22.10
2022-08-10T08:38:29.762Z,22.00
2022-08-10T08:41:51.897Z,22.41
2022-08-10T08:45:50.982Z,22.76
2022-08-10T08:50:08.803Z,23.44
2022-08-10T08:54:01.558Z,22.77
2022-08-10T08:57:49.715Z,23.11
2022-08-10T09:00:56.566Z,23.53
2022-08-10T09:04:58.001Z,23.46
2022-08-10T09:08:35.224Z,23.82
2022-08-10T09:12:13.339Z,23.58
2022-08-10T09:15:39.334Z,23.56
2022-08-10T09:19:10.146Z,23.84
2022-08-10T09:22:57.763Z,23.84
2022-08-10T09:26:19.259Z,23.90
2022-08-10T09:29:33.104Z,25.09
2022-08-10T09:35:43.279Z,24.92
2022-08-10T09:36:32.500Z,25.38
2022-08-10T09:40:56.954Z,24.08
2022-08-10T09:43:27.782Z,24.37
2022-08-10T09:47:18.887Z,24.51
2022-08-10T09:51:41.670Z,24.71
2022-08-10T09:54:54.161Z,24.54
2022-08-10T09:58:12.196Z,25.74
2022-08-10T10:01:58.253Z,25.60
2022-08-10T10:05:50.323Z,24.82
2022-08-10T10:09:12.092Z,25.13
2022-08-10T10:12:52.984Z,25.23
2022-08-10T10:16:17.357Z,25.37
2022-08-10T10:19:51.511Z,26.12
2022-08-10T10:23:22.660Z,25.99
2022-08-10T10:26:43.806Z,26.56
2022-08-10T10:30:06.470Z,26.37
2022-08-10T10:33:15.015Z,26.83
2022-08-10T10:36:16.133Z,26.08
2022-08-10T10:39:15.484Z,26.91
2022-08-10T10:42:46.895Z,26.59
2022-08-10T10:46:30.165Z,27.84
2022-08-10T10:50:03.269Z,26.79
2022-08-10T10:53:30.742Z,25.94
2022-08-10T10:57:01.622Z,26.43
2022-08-10T11:00:10.140Z,27.17
2022-08-10T11:03:48.133Z,27.45
2022-08-10T11:07:23.785Z,27.26
2022-08-10T11:10:46.838Z,28.14
2022-08-10T11:14:28.535Z,27.88
2022-08-10T11:17:38.893Z,27.53
2022-08-10T11:21:13.741Z,27.80
2022-08-10T11:25:01.411Z,28.01
2022-08-10T11:28:21.788Z,28.04
2022-08-10T11:31:39.915Z,28.14
2022-08-10T11:35:11.931Z,27.61
2022-08-10T11:39:12.836Z,28.03
2022-08-10T11:42:43.284Z,26.85
2022-08-10T11:45:52.175Z,25.94
2022-08-10T11:49:22.540Z,26.10
2022-08-10T11:53:10.979Z,26.65
2022-08-10T11:56:17.384Z,25.97
2022-08-10T11:59:36.112Z,26.98
2022-08-10T12:03:02.992Z,26.61
2022-08-10T12:06:01.873Z,26.39
2022-08-10T12:10:05.551Z,26.48
2022-08-10T12:12:18.056Z,26.78
2022-08-10T12:15:27.664Z,27.61
2022-08-10T12:18:36.521Z,28.19
2022-08-10T12:21:45.727Z,28.08
2022-08-10T12:25:00.899Z,28.14
2022-08-10T12:28:09.112Z,27.95
2022-08-10T12:31:10.310Z,28.28
2022-08-10T12:34:58.935Z,27.52
2022-08-10T12:38:33.840Z,28.10
2022-08-10T12:42:10.280Z,28.55
2022-08-10T12:45:36.004Z,27.84
2022-08-10T12:49:06.933Z,28.58
2022-08-10T12:52:29.101Z,28.99
2022-08-10T12:55:27.983Z,27.33
2022-08-10T12:58:59.659Z,26.94
2022-08-10T13:02:06.218Z,26.39
2022-08-10T13:05:11.155Z,26.70
2022-08-10T13:08:28.209Z,27.03
2022-08-10T13:12:36.740Z,26.76
2022-08-10T13:14:45.652Z,26.38
2022-08-10T13:17:49.733Z,26.45
2022-08-10T13:20:53.371Z,26.22
2022-08-10T13:24:04.712Z,26.40
2022-08-10T13:27:26.309Z,26.54
2022-08-10T13:30:33.858Z,27.35
2022-08-10T13:34:40.999Z,28.06
2022-08-10T13:37:01.348Z,27.77
2022-08-10T13:40:01.804Z,28.33
2022-08-10T13:43:02.451Z,27.86
2022-08-10T13:45:59.595Z,27.61
2022-08-10T13:48:59.770Z,27.33
2022-08-10T13:51:58.624Z,28.27
2022-08-10T13:54:58.905Z,28.02
2022-08-10T13:58:01.236Z,27.15
2022-08-10T14:01:01.768Z,26.95
2022-08-10T14:04:01.776Z,27.03
2022-08-10T14:07:01.021Z,28.50
2022-08-10T14:10:07.268Z,28.10
2022-08-10T14:13:06.112Z,27.93
2022-08-10T14:16:07.277Z,28.05
2022-08-10T14:19:10.285Z,27.55
2022-08-10T14:22:07.201Z,27.25
2022-08-10T14:25:12.723Z,26.84
2022-08-10T14:28:10.151Z,26.46
2022-08-10T14:31:12.992Z,26.43
2022-08-10T14:34:12.564Z,26.59
2022-08-10T14:37:19.477Z,26.55
2022-08-10T14:40:21.031Z,26.02
2022-08-10T14:43:28.607Z,26.67
2022-08-10T14:46:28.713Z,27.15
2022-08-10T14:49:28.396Z,27.46
2022-08-10T14:52:27.327Z,27.94
2022-08-10T14:55:24.941Z,27.84
2022-08-10T14:58:39.523Z,26.90
2022-08-10T15:02:38.389Z,26.30
2022-08-10T15:05:22.602Z,26.51
2022-08-10T15:08:25.519Z,27.40
2022-08-10T15:12:11.723Z,26.75
2022-08-10T15:14:45.693Z,26.73
2022-08-10T15:17:57.919Z,26.94
2022-08-10T15:20:59.451Z,26.73
2022-08-10T15:24:05.090Z,27.12
2022-08-10T15:27:08.525Z,27.68
2022-08-10T15:30:09.692Z,27.02
2022-08-10T15:34:02.122Z,27.13
2022-08-10T15:37:40.536Z,27.47
2022-08-10T15:40:31.365Z,27.55
2022-08-10T15:43:34.390Z,27.20
2022-08-10T15:46:49.513Z,27.20
2022-08-10T15:50:05.503Z,27.55
2022-08-10T15:53:29.653Z,27.65
2022-08-10T15:56:59.880Z,27.63
2022-08-10T16:00:11.108Z,27.06
2022-08-10T16:03:17.182Z,27.02
2022-08-10T16:06:38.201Z,27.52
2022-08-10T16:10:24.453Z,26.92
2022-08-10T16:13:59.658Z,26.21
2022-08-10T16:16:31.430Z,26.30
2022-08-10T16:19:30.217Z,27.45
2022-08-10T16:22:37.172Z,27.29
2022-08-10T16:25:48.445Z,27.45
2022-08-10T16:29:01.707Z,27.31
2022-08-10T16:32:04.238Z,27.68
2022-08-10T16:35:04.591Z,27.27
2022-08-10T16:38:12.983Z,27.28
2022-08-10T16:42:00.223Z,27.16
2022-08-10T16:44:41.713Z,27.11
2022-08-10T16:47:48.199Z,27.10
2022-08-10T16:50:59.101Z,27.32
2022-08-10T16:54:00.713Z,27.05
2022-08-10T16:57:03.534Z,27.34
2022-08-10T17:00:00.554Z,27.29
2022-08-10T17:03:22.896Z,27.08
2022-08-10T17:06:51.396Z,27.19
2022-08-10T17:09:54.192Z,26.50
2022-08-10T17:12:54.643Z,26.48
2022-08-10T17:16:00.667Z,26.20
2022-08-10T17:18:58.066Z,26.42
2022-08-10T17:22:02.264Z,26.16
2022-08-10T17:25:17.593Z,25.94
2022-08-10T17:28:34.660Z,25.84
2022-08-10T17:31:53.375Z,25.89
2022-08-10T17:34:57.844Z,25.67
2022-08-10T17:38:06.459Z,25.51
2022-08-10T17:41:13.072Z,25.39
2022-08-10T17:44:11.170Z,25.48
2022-08-10T17:47:11.281Z,25.19
2022-08-10T17:50:09.500Z,25.15
2022-08-10T17:53:16.095Z,24.99
2022-08-10T17:56:14.228Z,24.80
2022-08-10T17:59:17.299Z,24.51
2022-08-10T18:02:27.317Z,24.74
2022-08-10T18:05:24.546Z,24.91
2022-08-10T18:08:23.978Z,24.42
2022-08-10T18:11:32.408Z,23.90
2022-08-10T18:14:33.837Z,23.85
2022-08-10T18:17:39.588Z,23.37
2022-08-10T18:20:39.817Z,23.25
2022-08-10T18:23:40.340Z,23.09
2022-08-10T18:26:41.135Z,22.89
2022-08-10T18:29:42.180Z,23.18
2022-08-10T18:32:40.870Z,22.67
2022-08-10T18:35:38.666Z,22.74
2022-08-10T18:38:40.022Z,22.73
2022-08-10T18:42:00.469Z,22.50
2022-08-10T18:45:11.447Z,22.25
2022-08-10T18:48:16.231Z,22.05
2022-08-10T18:51:14.290Z,21.90
2022-08-10T18:54:39.612Z,21.71
2022-08-10T18:57:55.940Z,21.78
2022-08-10T19:01:17.612Z,21.65
2022-08-10T19:05:30.079Z,21.21
2022-08-10T19:09:08.629Z,21.31
2022-08-10T19:13:00.507Z,21.25
2022-08-10T19:16:15.106Z,21.15
2022-08-10T19:19:55.786Z,20.92
2022-08-10T19:23:33.548Z,20.73
2022-08-10T19:26:49.159Z,20.60
2022-08-10T19:30:10.780Z,20.60
2022-08-10T19:34:11.466Z,20.32
2022-08-10T19:37:32.759Z,20.50
2022-08-10T19:40:51.445Z,20.13
2022-08-10T19:44:03.185Z,20.32
2022-08-10T19:47:20.541Z,20.11
2022-08-10T19:50:44.998Z,20.12
2022-08-10T19:54:04.883Z,20.23
2022-08-10T19:57:16.259Z,20.08
2022-08-10T20:00:19.153Z,20.00
2022-08-10T20:03:37.531Z,19.93
2022-08-10T20:06:44.196Z,19.60
2022-08-10T20:10:00.502Z,19.76
2022-08-10T20:13:12.201Z,19.74
2022-08-10T20:16:26.504Z,19.66
2022-08-10T20:20:06.857Z,19.45
2022-08-10T20:23:35.348Z,19.49
2022-08-10T20:26:41.804Z,19.58
2022-08-10T20:29:58.478Z,19.23
2022-08-10T20:33:07.818Z,19.45
2022-08-10T20:36:23.531Z,19.26
2022-08-10T20:39:40.383Z,19.21
2022-08-10T20:43:07.006Z,19.35
2022-08-10T20:46:27.741Z,18.98
2022-08-10T20:50:01.949Z,19.13
2022-08-10T20:53:06.185Z,19.15
2022-08-10T20:56:13.104Z,19.22
2022-08-10T21:00:02.408Z,18.79
2022-08-10T21:03:34.202Z,18.68
2022-08-10T21:07:05.525Z,18.32
2022-08-10T21:10:48.051Z,18.56
2022-08-10T21:14:11.572Z,18.87
2022-08-10T21:17:45.918Z,18.55
2022-08-10T21:21:16.593Z,18.70
2022-08-10T21:24:32.683Z,18.61
2022-08-10T21:28:10.042Z,18.66
2022-08-10T21:31:45.081Z,18.16
2022-08-10T21:35:02.303Z,18.21
2022-08-10T21:38:21.401Z,18.09
2022-08-10T21:42:14.685Z,18.08
2022-08-10T21:46:00.335Z,18.14
2022-08-10T21:49:37.069Z,18.14
2022-08-10T21:53:03.002Z,17.87
2022-08-10T21:56:37.155Z,17.86
2022-08-10T22:00:04.948Z,17.93
2022-08-10T22:03:27.359Z,18.11
2022-08-10T22:07:00.804Z,17.60
2022-08-10T22:10:16.788Z,17.64
2022-08-10T22:13:36.320Z,17.51
2022-08-10T22:18:03.679Z,17.82
2022-08-10T22:20:52.254Z,17.42
2022-08-10T22:24:42.546Z,17.29
2022-08-10T22:28:02.008Z,17.57
2022-08-10T22:35:34.496Z,17.11
2022-08-10T22:40:11.971Z,17.12
2022-08-10T22:43:10.849Z,16.97
2022-08-10T22:46:38.761Z,17.04
2022-08-10T22:49:35.622Z,16.75
2022-08-10T22:52:57.345Z,16.88
2022-08-10T22:56:15.635Z,16.74
2022-08-10T22:59:12.990Z,16.88
2022-08-10T23:02:12.222Z,16.44
2022-08-10T23:05:14.453Z,16.82
2022-08-10T23:08:29.607Z,16.45
2022-08-10T23:11:39.120Z,16.49
2022-08-10T23:14:40.596Z,16.61
2022-08-10T23:18:01.125Z,16.23
2022-08-10T23:21:00.952Z,16.27
2022-08-10T23:23:59.539Z,16.52
2022-08-10T23:26:59.331Z,16.19
2022-08-10T23:30:17.058Z,16.27
2022-08-10T23:33:17.475Z,16.21
2022-08-10T23:36:39.045Z,16.16
2022-08-10T23:39:43.531Z,16.30
2022-08-10T23:42:47.423Z,16.18
2022-08-10T23:45:54.439Z,16.22
2022-08-10T23:48:56.270Z,16.39
2022-08-10T23:51:54.937Z,16.17
2022-08-10T23:54:59.369Z,16.08
2022-08-10T23:58:08.861Z,16.02
